Time;durP1;ratioP1;P1;durP2;ratioP2;P2;SDS_P1;SDS_P2;PMS_P1;PMS_P2;Temp;Humidity;BMP_temperature;BMP_pressure;BME280_temperature;BME280_humidity;BME280_pressure;Samples;Min_cycle;Max_cycle;Signal;HPM_P1;HPM_P2
2022/06/01 04:22:43;;;;;;;16.08;9.00;;;;;;;10.05;100.00;100053.44;5112772;27;20163;-77
2022/06/01 04:25:13;;;;;;;24.10;12.88;;;;;;;10.15;99.12;100055.03;5109657;28;20034;-76
2022/06/01 04:27:39;;;;;;;21.00;10.27;;;;;;;10.25;99.24;100050.38;5109705;28;20039;-76
2022/06/01 04:30:07;;;;;;;19.27;9.18;;;;;;;10.31;98.88;100039.84;5109907;28;20111;-77
2022/06/01 04:32:32;;;;;;;16.55;9.32;;;;;;;10.39;98.64;100041.63;5110751;28;20636;-77
2022/06/01 04:34:59;;;;;;;13.07;7.78;;;;;;;10.47;98.27;100043.38;5109237;28;20085;-77
2022/06/01 04:37:25;;;;;;;13.10;8.05;;;;;;;10.54;98.58;100039.84;5108997;28;20032;-78
2022/06/01 04:39:50;;;;;;;11.88;8.07;;;;;;;10.64;98.31;100044.94;5109106;28;20495;-77
2022/06/01 04:42:16;;;;;;;17.45;9.98;;;;;;;10.76;97.98;100050.69;5108709;28;20081;-77
2022/06/01 04:44:42;;;;;;;19.15;10.65;;;;;;;10.83;97.96;100049.78;5109088;28;20032;-77
2022/06/01 04:47:09;;;;;;;15.43;7.95;;;;;;;10.87;98.48;100047.56;5109199;28;20043;-77
2022/06/01 04:49:35;;;;;;;12.38;6.30;;;;;;;10.99;94.38;100048.78;5107847;28;20079;-78
2022/06/01 04:52:01;;;;;;;12.50;6.88;;;;;;;11.03;93.51;100042.09;5108711;28;20078;-77
2022/06/01 04:54:26;;;;;;;8.05;6.20;;;;;;;11.23;90.32;100050.41;5107423;28;20063;-77
2022/06/01 04:56:51;;;;;;;10.75;5.82;;;;;;;11.34;89.79;100041.09;5108551;28;20075;-77
2022/06/01 04:59:17;;;;;;;8.30;5.32;;;;;;;11.47;88.48;100054.63;5108725;28;20052;-78
2022/06/01 05:01:46;;;;;;;9.48;6.25;;;;;;;11.60;87.65;100049.47;5108262;28;20184;-76
2022/06/01 05:04:12;;;;;;;8.48;6.35;;;;;;;11.71;86.66;100045.53;5108604;28;20511;-77
2022/06/01 05:06:38;;;;;;;8.77;6.15;;;;;;;11.83;85.02;100046.75;5108521;28;20152;-77
2022/06/01 05:09:03;;;;;;;7.85;5.03;;;;;;;11.95;83.35;100041.75;5108528;28;20501;-78
2022/06/01 05:11:29;;;;;;;9.05;5.50;;;;;;;12.10;82.97;100041.72;5108433;28;20446;-77
2022/06/01 05:13:54;;;;;;;11.38;5.60;;;;;;;12.39;81.11;100038.16;5109306;28;20069;-77
2022/06/01 05:16:20;;;;;;;7.60;4.80;;;;;;;12.61;78.61;100036.31;5107184;28;20108;-77
2022/06/01 05:18:46;;;;;;;8.13;5.53;;;;;;;12.76;77.09;100043.22;5107136;28;20036;-78
2022/06/01 05:21:11;;;;;;;11.13;6.22;;;;;;;12.86;76.79;100045.59;5089866;28;20110;-77
2022/06/01 05:23:37;;;;;;;9.50;5.53;;;;;;;12.94;75.73;100050.78;5108039;28;20093;-77
2022/06/01 05:26:03;;;;;;;7.10;5.82;;;;;;;12.95;77.00;100044.41;5108166;28;20040;-77
2022/06/01 05:28:31;;;;;;;8.25;5.60;;;;;;;12.97;77.14;100046.88;5090115;28;20039;-78
2022/06/01 05:30:58;;;;;;;10.98;5.60;;;;;;;13.00;77.26;100033.97;5108458;28;20081;-77
2022/06/01 05:33:24;;;;;;;15.63;6.13;;;;;;;13.10;77.32;100048.84;5097132;28;20085;-77
2022/06/01 05:35:49;;;;;;;9.00;6.25;;;;;;;13.16;78.61;100048.06;5094672;28;20036;-77
2022/06/01 05:38:15;;;;;;;14.50;6.38;;;;;;;13.26;79.20;100053.94;5094637;28;20050;-78
2022/06/01 05:40:40;;;;;;;14.38;6.95;;;;;;;13.39;79.17;100050.53;5098000;28;20115;-78
2022/06/01 05:43:11;;;;;;;11.45;5.65;;;;;;;13.57;79.03;100049.00;5098527;28;20473;-80
2022/06/01 05:45:38;;;;;;;9.23;5.80;;;;;;;13.67;79.00;100048.63;5098391;28;20036;-79
2022/06/01 05:48:04;;;;;;;10.55;5.63;;;;;;;13.74;78.17;100052.16;5095850;28;20032;-77
2022/06/01 05:50:29;;;;;;;8.45;5.68;;;;;;;13.76;78.44;100052.81;5094616;28;20113;-78
2022/06/01 05:52:55;;;;;;;7.00;5.93;;;;;;;13.80;78.17;100047.88;5093863;28;20447;-78
2022/06/01 05:55:20;;;;;;;14.43;7.18;;;;;;;13.91;77.64;100057.19;5096518;28;20523;-78
2022/06/01 05:57:46;;;;;;;8.63;5.38;;;;;;;13.94;77.86;100051.41;5097606;28;20115;-77
2022/06/01 06:00:16;;;;;;;8.07;5.38;;;;;;;14.03;77.82;100063.63;5096640;28;20028;-77
2022/06/01 06:02:42;;;;;;;10.77;5.78;;;;;;;14.19;75.28;100057.91;5097364;28;20044;-78
2022/06/01 06:06:12;;;;;;;11.13;5.88;;;;;;;14.28;75.00;100063.91;5097710;28;20044;-80
2022/06/01 06:07:55;;;;;;;9.27;5.78;;;;;;;14.30;75.32;100057.31;5095973;28;20051;-78
2022/06/01 06:10:21;;;;;;;10.98;5.10;;;;;;;14.36;75.13;100056.53;5077556;28;20028;-77
2022/06/01 06:12:47;;;;;;;7.20;5.30;;;;;;;14.46;75.14;100055.28;5097053;28;20059;-78
2022/06/01 06:15:12;;;;;;;18.38;5.47;;;;;;;14.50;74.45;100056.59;5097078;28;20053;-74
2022/06/01 06:17:38;;;;;;;8.77;5.50;;;;;;;14.55;74.78;100048.75;5093616;28;20111;-74
2022/06/01 06:20:04;;;;;;;12.95;5.93;;;;;;;14.63;75.63;100057.44;5093444;28;20123;-74
2022/06/01 06:22:29;;;;;;;8.48;5.15;;;;;;;14.77;73.66;100050.22;5092917;28;20086;-75
2022/06/01 06:24:55;;;;;;;7.68;4.95;;;;;;;14.87;71.63;100061.38;5093453;28;20485;-74
2022/06/01 06:27:20;;;;;;;8.48;5.07;;;;;;;14.98;72.38;100059.09;5075241;28;20496;-74
2022/06/01 06:29:46;;;;;;;5.55;4.32;;;;;;;15.04;73.29;100059.09;5093428;28;20040;-75
2022/06/01 06:32:12;;;;;;;12.35;5.30;;;;;;;15.11;73.97;100061.78;5093378;28;20028;-75
2022/06/01 06:34:38;;;;;;;8.05;4.70;;;;;;;15.19;73.31;100061.56;5093358;28;20443;-77
2022/06/01 06:37:04;;;;;;;5.32;4.82;;;;;;;15.31;72.41;100064.44;5093165;28;20040;-75
2022/06/01 06:39:30;;;;;;;6.25;5.00;;;;;;;15.42;72.71;100066.50;5093296;28;20044;-75
2022/06/01 06:41:56;;;;;;;17.55;4.70;;;;;;;15.58;70.95;100070.59;5092848;28;20477;-75
2022/06/01 06:44:25;;;;;;;7.68;4.55;;;;;;;15.73;70.59;100068.53;5090785;28;20047;-75
2022/06/01 06:46:51;;;;;;;7.03;4.72;;;;;;;15.80;69.31;100065.81;5092994;28;20051;-75
2022/06/01 06:49:16;;;;;;;7.35;4.72;;;;;;;15.88;68.80;100076.31;5092859;28;20135;-75
2022/06/01 06:51:41;;;;;;;7.18;4.55;;;;;;;15.95;68.04;100071.75;5092621;28;20043;-75
2022/06/01 06:54:07;;;;;;;8.50;4.88;;;;;;;16.01;68.96;100065.53;5092910;28;20028;-74
2022/06/01 06:56:33;;;;;;;6.80;4.85;;;;;;;16.26;67.55;100076.38;5092826;28;20416;-74
2022/06/01 06:58:58;;;;;;;7.63;4.63;;;;;;;16.27;68.03;100070.78;5092878;28;20036;-76
2022/06/01 07:01:24;;;;;;;12.15;4.93;;;;;;;16.48;67.04;100071.50;5092713;28;20116;-77
2022/06/01 07:03:50;;;;;;;6.15;4.85;;;;;;;16.50;68.77;100067.56;5092598;28;20051;-76
2022/06/01 07:06:17;;;;;;;6.70;5.05;;;;;;;16.67;66.73;100073.25;5092544;28;20083;-76
2022/06/01 07:08:46;;;;;;;10.73;5.78;;;;;;;16.76;66.10;100068.47;5091285;28;20052;-75
2022/06/01 07:11:14;;;;;;;11.77;6.05;;;;;;;16.98;65.49;100072.44;5092571;28;20651;-76
2022/06/01 07:13:40;;;;;;;7.93;5.60;;;;;;;17.13;65.52;100074.78;5092397;28;20036;-75
2022/06/01 07:16:13;;;;;;;10.50;5.97;;;;;;;17.23;65.41;100074.31;5092418;28;20032;-76
2022/06/01 07:18:41;;;;;;;8.02;5.15;;;;;;;17.32;64.68;100070.28;5091053;28;20097;-76
2022/06/01 07:21:07;;;;;;;9.82;5.57;;;;;;;17.34;64.78;100073.56;5091166;28;20038;-74
2022/06/01 07:23:35;;;;;;;10.07;4.72;;;;;;;17.51;64.22;100069.25;5091370;28;20056;-73
2022/06/01 07:26:01;;;;;;;8.70;5.05;;;;;;;17.60;65.46;100075.16;5092234;28;20115;-74
2022/06/01 07:28:27;;;;;;;8.00;4.57;;;;;;;17.72;64.82;100069.91;5092459;28;20089;-73
2022/06/01 07:30:56;;;;;;;9.20;5.13;;;;;;;17.88;63.75;100072.00;5092168;28;20044;-74
2022/06/01 07:33:24;;;;;;;7.22;4.93;;;;;;;17.94;62.50;100071.09;5092232;28;20055;-73
2022/06/01 07:35:49;;;;;;;14.85;4.95;;;;;;;18.14;62.01;100066.28;5074026;28;20040;-73
2022/06/01 07:43:44;;;;;;;8.13;3.90;;;;;;;18.70;55.82;100075.91;5090568;28;20066;-73
2022/06/01 07:46:09;;;;;;;6.68;3.80;;;;;;;18.75;54.45;100077.91;5091635;28;20641;-72
2022/06/01 07:48:35;;;;;;;8.18;3.03;;;;;;;18.76;54.70;100076.03;5090618;28;20404;-72
2022/06/01 07:51:01;;;;;;;6.63;3.38;;;;;;;18.90;53.01;100069.38;5091746;28;20032;-73
2022/06/01 07:53:26;;;;;;;6.70;3.10;;;;;;;19.00;52.29;100076.91;5091453;28;20136;-73
2022/06/01 07:55:52;;;;;;;5.28;3.30;;;;;;;19.01;49.86;100070.47;5091454;28;20101;-73
2022/06/01 07:58:18;;;;;;;5.93;3.00;;;;;;;19.14;49.62;100070.25;5091657;28;20071;-74
2022/06/01 08:00:43;;;;;;;4.40;2.88;;;;;;;19.28;49.05;100062.72;5091603;28;20043;-73
2022/06/01 08:03:15;;;;;;;9.38;2.80;;;;;;;19.51;49.47;100055.47;5073111;28;20036;-73
2022/06/01 08:05:41;;;;;;;7.50;3.03;;;;;;;19.52;50.04;100065.19;5091654;28;20047;-74
2022/06/01 08:08:07;;;;;;;6.50;2.95;;;;;;;19.60;50.01;100058.63;5091575;28;20140;-74
2022/06/01 08:10:33;;;;;;;6.75;2.65;;;;;;;19.65;49.17;100066.03;5091641;28;20424;-74
2022/06/01 08:13:09;;;;;;;7.43;3.00;;;;;;;19.65;48.42;100064.16;5091157;28;20476;-74
2022/06/01 08:15:55;;;;;;;6.75;2.70;;;;;;;19.76;46.32;100068.72;5091494;28;20115;-74
2022/06/01 08:18:23;;;;;;;9.63;3.08;;;;;;;19.87;46.33;100071.63;5091343;28;20036;-75
2022/06/01 08:20:49;;;;;;;5.35;2.70;;;;;;;20.01;46.45;100073.00;5090164;28;20622;-76
2022/06/01 08:23:15;;;;;;;6.93;2.85;;;;;;;20.13;46.49;100075.69;5091123;28;20032;-74
2022/06/01 08:25:42;;;;;;;5.18;2.85;;;;;;;20.07;46.69;100072.06;5091442;28;20107;-75
2022/06/01 08:28:09;;;;;;;5.40;2.60;;;;;;;20.28;46.19;100071.41;5091572;28;20028;-75
2022/06/01 08:30:37;;;;;;;3.07;2.13;;;;;;;20.40;46.50;100075.94;5091457;28;20113;-75
2022/06/01 08:33:03;;;;;;;5.18;2.40;;;;;;;20.52;45.11;100077.56;5091171;28;20051;-74
2022/06/01 08:35:32;;;;;;;4.47;2.65;;;;;;;20.58;44.43;100075.78;5091427;28;20453;-75
2022/06/01 08:37:59;;;;;;;7.32;2.30;;;;;;;20.65;45.05;100084.56;5091337;28;20066;-73
2022/06/01 08:40:32;;;;;;;5.80;2.42;;;;;;;20.74;43.52;100077.69;5091303;28;20513;-72
2022/06/01 08:43:01;;;;;;;4.43;2.13;;;;;;;20.64;43.13;100074.78;5089733;28;20051;-72
2022/06/01 08:45:28;;;;;;;8.07;2.75;;;;;;;20.73;43.37;100073.31;5091242;28;20096;-72
2022/06/01 08:47:54;;;;;;;4.73;2.63;;;;;;;20.93;43.14;100085.56;5091361;28;20349;-73
2022/06/01 08:50:30;;;;;;;7.40;2.20;;;;;;;21.08;43.00;100081.25;5089966;28;20032;-73
2022/06/01 08:52:58;;;;;;;4.68;2.30;;;;;;;21.23;43.43;100074.41;5090972;28;20036;-72
2022/06/01 08:55:27;;;;;;;3.58;2.40;;;;;;;21.35;42.46;100084.13;5091150;28;20028;-75
2022/06/01 08:58:01;;;;;;;5.65;2.50;;;;;;;21.56;41.60;100097.97;5091227;28;20406;-72
2022/06/01 09:00:32;;;;;;;4.95;2.33;;;;;;;21.63;42.00;100085.88;5091047;28;20519;-72
2022/06/01 09:03:16;;;;;;;3.75;2.20;;;;;;;21.66;43.26;100092.72;5090872;28;20027;-73
2022/06/01 09:05:57;;;;;;;3.40;2.10;;;;;;;21.74;41.98;100092.28;5091083;28;20030;-73
2022/06/01 09:08:42;;;;;;;3.35;2.22;;;;;;;21.58;41.48;100090.41;5093033;28;20028;-73
2022/06/01 09:11:31;;;;;;;3.88;2.20;;;;;;;21.93;40.77;100084.66;5094867;28;20024;-72
2022/06/01 09:14:15;;;;;;;6.60;2.25;;;;;;;22.15;41.06;100088.22;5093490;28;20067;-73
2022/06/01 09:16:47;;;;;;;5.95;2.38;;;;;;;22.32;40.23;100084.63;5094853;28;20074;-73
2022/06/01 09:19:21;;;;;;;8.15;2.13;;;;;;;22.37;40.46;100087.41;5094785;28;20089;-73
2022/06/01 09:24:58;;;;;;;4.40;2.05;;;;;;;22.69;37.59;100085.56;5094657;28;20523;-73
2022/06/01 09:27:38;;;;;;;6.13;2.35;;;;;;;22.90;39.31;100089.31;5094465;28;20048;-73
2022/06/01 09:30:19;;;;;;;2.80;2.30;;;;;;;23.12;38.25;100096.53;5094484;28;20050;-73
2022/06/01 09:33:03;;;;;;;2.45;2.10;;;;;;;23.18;37.81;100090.91;5094254;28;20020;-73
2022/06/01 09:35:34;;;;;;;4.10;1.80;;;;;;;23.43;36.48;100087.53;5093370;28;20460;-73
2022/06/01 09:38:04;;;;;;;3.78;1.77;;;;;;;23.39;37.05;100085.59;5076205;28;20055;-73
2022/06/01 09:40:33;;;;;;;3.67;2.30;;;;;;;23.71;36.84;100093.72;5094214;28;20043;-73
2022/06/01 09:43:00;;;;;;;7.45;2.47;;;;;;;23.82;40.26;100095.41;5094044;28;20028;-74
2022/06/01 09:45:28;;;;;;;3.42;2.10;;;;;;;24.17;36.83;100083.06;5094027;28;20047;-72
2022/06/01 09:48:10;;;;;;;5.07;2.60;;;;;;;24.32;37.95;100088.53;5094217;28;20111;-74
2022/06/01 09:50:38;;;;;;;4.05;1.95;;;;;;;24.16;35.85;100082.22;5092914;28;20071;-73
2022/06/01 09:53:17;;;;;;;3.95;1.92;;;;;;;24.09;35.58;100090.63;5093754;28;20048;-73
2022/06/01 09:56:01;;;;;;;6.93;2.08;;;;;;;24.15;37.42;100093.38;5093768;28;20040;-73
2022/06/01 10:07:25;;;;;;;4.40;2.22;;;;;;;24.86;35.03;100083.50;5093922;28;20172;-73
2022/06/01 10:09:55;;;;;;;5.72;2.20;;;;;;;25.12;36.08;100068.00;5092597;28;20111;-73
2022/06/01 10:12:47;;;;;;;4.30;2.00;;;;;;;25.44;35.21;100064.97;5093438;28;20028;-73
2022/06/01 10:15:37;;;;;;;3.47;1.80;;;;;;;25.86;36.01;100065.69;5092392;28;20136;-73
2022/06/01 10:18:23;;;;;;;2.38;1.70;;;;;;;26.15;34.86;100074.84;5093836;28;20535;-73
2022/06/01 10:20:56;;;;;;;3.60;1.87;;;;;;;26.45;33.31;100068.44;5093643;28;20116;-74
2022/06/01 10:23:40;;;;;;;4.85;2.28;;;;;;;26.81;32.60;100073.66;5093191;28;20646;-74
2022/06/01 10:26:30;;;;;;;5.40;2.15;;;;;;;27.05;33.04;100076.47;5093422;28;20388;-74
2022/06/01 10:29:02;;;;;;;5.45;1.85;;;;;;;27.03;30.61;100075.94;5093451;28;20032;-74
2022/06/01 10:31:46;;;;;;;2.13;1.60;;;;;;;26.85;32.83;100071.97;5093117;28;20040;-74
2022/06/01 10:34:27;;;;;;;5.18;1.95;;;;;;;26.39;31.28;100071.44;5093758;28;20028;-74
2022/06/01 10:36:58;;;;;;;5.50;2.40;;;;;;;26.97;32.66;100071.59;5093111;28;20075;-74
2022/06/01 10:39:32;;;;;;;1.90;1.70;;;;;;;27.22;30.42;100071.41;5093000;28;20492;-73
2022/06/01 10:42:17;;;;;;;3.10;2.20;;;;;;;26.66;30.95;100055.44;5092765;28;20063;-74
2022/06/01 10:45:08;;;;;;;3.72;1.60;;;;;;;27.02;34.34;100071.56;5093102;28;20039;-73
2022/06/01 10:48:26;;;;;;;2.10;1.90;;;;;;;26.31;32.24;100059.19;5092957;28;20032;-74
2022/06/01 10:51:03;;;;;;;2.88;1.80;;;;;;;25.69;32.79;100066.81;5021339;28;20093;-73
2022/06/01 10:53:46;;;;;;;2.45;1.58;;;;;;;25.74;34.36;100063.28;5092536;28;20036;-74
2022/06/01 10:56:13;;;;;;;5.68;1.80;;;;;;;26.16;32.71;100067.47;5092732;28;20032;-73
2022/06/01 10:58:38;;;;;;;;;;;;;;;26.18;32.68;100060.63;5093188;28;20028;-73
2022/06/01 11:01:31;;;;;;;4.22;1.67;;;;;;;25.52;33.21;100057.31;5091654;28;19919;-73
2022/06/01 11:04:43;;;;;;;2.38;1.40;;;;;;;25.56;32.56;100055.66;5094237;28;20458;-74
2022/06/01 11:07:27;;;;;;;3.03;1.52;;;;;;;25.57;33.85;100060.84;5092478;28;20058;-74
2022/06/01 11:10:02;;;;;;;4.63;1.98;;;;;;;24.95;33.25;100059.25;5092564;28;20119;-74
2022/06/01 11:13:08;;;;;;;4.72;1.70;;;;;;;25.21;34.29;100057.38;5092161;28;20152;-73
2022/06/01 11:15:58;;;;;;;;;;;;;;;24.82;33.30;100062.53;5092834;28;20036;-73
2022/06/01 11:18:55;;;;;;;3.97;1.80;;;;;;;25.81;32.86;100061.06;5092464;28;20003;-74
2022/06/01 11:21:42;;;;;;;4.07;1.73;;;;;;;26.53;32.57;100058.81;5080413;28;20036;-73
2022/06/01 11:24:27;;;;;;;4.63;2.00;;;;;;;26.27;32.94;100055.38;5092602;28;20417;-74
2022/06/01 11:27:08;;;;;;;3.05;1.60;;;;;;;27.01;30.53;100053.56;5092421;28;20053;-76
2022/06/01 11:29:56;;;;;;;4.38;2.22;;;;;;;27.33;29.82;100053.00;5092112;28;20032;-74
2022/06/01 11:32:28;;;;;;;2.45;1.50;;;;;;;27.26;28.21;100047.88;5091575;28;20032;-73
2022/06/01 11:35:03;;;;;;;3.05;1.80;;;;;;;27.12;32.98;100049.63;5092139;28;20032;-75
2022/06/01 11:37:48;;;;;;;2.42;1.80;;;;;;;27.46;29.89;100041.38;5090737;28;20090;-73
2022/06/01 11:40:33;;;;;;;1.70;1.60;;;;;;;27.66;31.82;100040.34;5092041;28;20451;-73
2022/06/01 11:43:12;;;;;;;1.88;1.30;;;;;;;27.95;26.86;100028.50;5090532;28;20028;-73
2022/06/01 11:45:49;;;;;;;2.63;1.58;;;;;;;28.12;26.34;100020.63;5092228;28;20032;-74
2022/06/01 11:48:23;;;;;;;3.85;1.50;;;;;;;28.75;26.57;100024.91;5092019;28;20400;-73
2022/06/01 11:51:09;;;;;;;3.60;1.35;;;;;;;28.15;26.02;100027.44;5091954;28;20036;-74
2022/06/01 11:53:42;;;;;;;;;;;;;;;27.82;26.05;100039.06;5090731;28;20036;-74
2022/06/01 11:56:34;;;;;;;2.45;1.40;;;;;;;27.58;27.93;100032.75;5091794;28;19934;-73
2022/06/01 11:59:21;;;;;;;2.95;1.48;;;;;;;27.53;25.35;100027.38;5092015;28;20089;-74
2022/06/01 12:01:46;;;;;;;;;;;;;;;27.03;25.16;100026.75;5091865;28;20032;-73
2022/06/01 12:04:28;;;;;;;3.60;1.27;;;;;;;27.06;28.69;100039.88;5091770;28;20050;-74
2022/06/01 12:06:59;;;;;;;4.43;1.77;;;;;;;27.50;25.46;100034.22;5091535;28;20036;-73
2022/06/01 12:09:30;;;;;;;3.33;1.50;;;;;;;27.64;27.44;100022.56;5090392;28;20028;-73
2022/06/01 12:11:56;;;;;;;3.35;1.40;;;;;;;27.84;26.92;100039.59;5091324;28;20128;-74
2022/06/01 12:14:54;;;;;;;1.85;1.20;;;;;;;27.51;25.50;100029.56;5091611;28;20542;-74
2022/06/01 12:17:23;;;;;;;3.13;1.40;;;;;;;27.98;25.80;100022.47;5091517;28;20040;-73
2022/06/01 12:19:50;;;;;;;2.83;1.33;;;;;;;27.96;25.53;100024.66;5091666;28;20477;-73
2022/06/01 12:28:33;;;;;;;1.45;1.00;;;;;;;29.22;24.62;100021.09;5091526;28;20032;-74
2022/06/01 12:31:22;;;;;;;1.73;1.10;;;;;;;29.15;23.93;100012.47;5091417;28;20071;-74
2022/06/01 12:34:06;;;;;;;3.15;1.13;;;;;;;29.96;24.11;100008.09;5091383;28;20649;-74
2022/06/01 12:36:37;;;;;;;3.72;1.25;;;;;;;29.86;24.02;100005.56;5090250;28;20485;-74
2022/06/01 12:39:34;;;;;;;2.63;1.10;;;;;;;29.35;22.79;100000.31;5091780;28;20426;-73
2022/06/01 12:42:02;;;;;;;;;;;;;;;28.74;24.71;100002.16;5091549;28;20051;-74
2022/06/01 12:44:28;;;;;;;5.32;1.52;;;;;;;29.07;24.34;99991.22;5095307;28;19916;-74
2022/06/01 12:46:54;;;;;;;3.67;1.40;;;;;;;29.15;25.33;100001.50;5095347;28;20101;-75
2022/06/01 12:49:47;;;;;;;4.53;1.33;;;;;;;28.71;24.58;100002.78;5095456;28;20618;-75
2022/06/01 12:52:22;;;;;;;3.40;1.10;;;;;;;28.55;25.78;100001.38;5093754;28;20080;-75
2022/06/01 12:54:50;;;;;;;2.58;1.17;;;;;;;28.71;23.68;100001.97;5094026;28;20046;-76
2022/06/01 12:57:31;;;;;;;2.70;1.30;;;;;;;28.82;23.61;99997.91;5093839;28;20032;-75
2022/06/01 13:00:11;;;;;;;2.22;1.20;;;;;;;29.24;23.94;99994.19;5095244;28;20042;-75
2022/06/01 13:02:38;;;;;;;3.90;1.25;;;;;;;29.45;23.07;99978.13;5094935;28;20544;-75
2022/06/01 13:05:08;;;;;;;1.83;1.08;;;;;;;29.45;23.97;99978.13;5095114;28;20044;-74
2022/06/01 13:07:38;;;;;;;3.33;1.20;;;;;;;29.29;23.67;99982.31;5094992;28;20056;-74
2022/06/01 13:10:06;;;;;;;4.35;1.40;;;;;;;29.63;23.32;99984.66;5093789;28;20703;-74
2022/06/01 13:12:33;;;;;;;1.60;1.10;;;;;;;29.38;24.35;99983.22;5094644;28;20534;-74
2022/06/01 13:15:13;;;;;;;1.90;1.23;;;;;;;29.22;23.14;99979.97;5094893;28;20191;-74
2022/06/01 13:18:13;;;;;;;5.63;1.20;;;;;;;28.66;25.15;99980.94;5094791;28;20077;-73
2022/06/01 13:20:44;;;;;;;4.05;1.30;;;;;;;28.35;25.56;99972.38;5090382;28;20055;-74
2022/06/01 13:23:42;;;;;;;3.30;1.23;;;;;;;28.21;25.50;99971.47;5093103;28;20500;-74
2022/06/01 13:26:10;;;;;;;2.90;1.48;;;;;;;28.10;25.47;99970.81;5089917;28;20075;-74
2022/06/01 13:28:35;;;;;;;2.05;1.48;;;;;;;27.31;27.41;99979.44;5094618;28;20024;-74
2022/06/01 13:31:03;;;;;;;2.58;1.50;;;;;;;27.31;25.83;99973.16;5093256;28;20390;-74
2022/06/01 13:33:43;;;;;;;1.60;1.20;;;;;;;27.13;26.29;99982.94;5094204;28;20084;-74
2022/06/01 13:36:14;;;;;;;5.30;1.63;;;;;;;26.96;26.60;99974.34;5094534;28;20438;-74
2022/06/01 13:38:47;;;;;;;3.45;1.40;;;;;;;26.74;27.93;99964.72;5094833;28;20089;-74
2022/06/01 13:41:33;;;;;;;2.00;1.20;;;;;;;26.38;27.55;99976.97;5094518;28;20036;-73
2022/06/01 13:43:58;;;;;;;2.63;1.30;;;;;;;26.49;28.94;99970.38;5094208;28;20043;-73
2022/06/01 13:46:35;;;;;;;2.47;1.20;;;;;;;26.61;28.02;99978.22;5094152;28;20688;-74
2022/06/01 13:49:04;;;;;;;6.82;1.38;;;;;;;26.58;27.63;99963.19;5094259;28;20047;-74
2022/06/01 13:51:54;;;;;;;2.67;1.40;;;;;;;26.16;28.96;99972.78;5092624;28;20222;-74
2022/06/01 13:54:28;;;;;;;2.63;1.40;;;;;;;25.37;29.12;99968.22;5093574;28;20036;-73
2022/06/01 13:57:20;;;;;;;4.63;1.58;;;;;;;25.85;29.01;99963.94;5093904;28;20039;-73
2022/06/01 13:59:57;;;;;;;6.63;1.75;;;;;;;25.99;29.18;99964.13;5093971;28;20036;-74
2022/06/01 14:02:35;;;;;;;2.97;1.70;;;;;;;25.84;29.37;99962.31;5093600;28;20027;-74
2022/06/01 14:05:15;;;;;;;2.58;1.40;;;;;;;25.90;29.00;99961.19;5093970;28;20439;-73
2022/06/01 14:07:44;;;;;;;4.97;1.40;;;;;;;26.04;28.53;99971.47;5093952;28;20036;-73
2022/06/01 14:10:11;;;;;;;5.00;1.30;;;;;;;26.02;29.57;99977.22;5093812;28;20123;-73
2022/06/01 14:12:40;;;;;;;2.78;1.40;;;;;;;26.14;29.25;99955.03;5092026;28;20040;-73
2022/06/01 14:15:07;;;;;;;3.35;1.50;;;;;;;26.00;29.15;99973.94;5093847;28;20036;-74
2022/06/01 14:17:33;;;;;;;3.05;1.30;;;;;;;25.54;29.73;99971.41;5092342;28;20036;-74
2022/06/01 14:19:58;;;;;;;2.35;1.30;;;;;;;25.48;29.22;99964.34;5093701;28;20093;-74
2022/06/01 14:22:24;;;;;;;3.72;1.20;;;;;;;25.56;30.09;99966.50;5092051;28;20040;-74
2022/06/01 14:30:18;;;;;;;5.88;1.70;;;;;;;24.93;29.97;99955.19;5093427;28;20043;-74
2022/06/01 14:32:44;;;;;;;3.95;1.45;;;;;;;24.68;29.69;99960.69;5092987;28;20040;-73
2022/06/01 14:35:16;;;;;;;2.13;1.38;;;;;;;24.56;30.63;99966.38;5093341;28;20111;-73
2022/06/01 14:37:45;;;;;;;3.17;1.42;;;;;;;25.00;30.06;99955.72;5093321;28;20078;-74
2022/06/01 14:40:12;;;;;;;3.90;1.60;;;;;;;25.01;30.15;99968.25;5092989;28;20036;-76
2022/06/01 14:42:38;;;;;;;3.15;1.40;;;;;;;24.40;29.21;99954.69;5092521;28;20103;-75
2022/06/01 14:45:05;;;;;;;1.63;1.30;;;;;;;24.59;29.37;99950.34;5093090;28;20488;-76
2022/06/01 14:47:30;;;;;;;2.42;1.27;;;;;;;24.68;29.81;99955.22;5092783;28;20040;-75
2022/06/01 14:49:56;;;;;;;6.07;1.40;;;;;;;24.97;29.95;99961.72;5089995;28;20054;-75
2022/06/01 14:52:22;;;;;;;3.70;1.40;;;;;;;25.17;28.99;99955.47;5092352;28;20040;-75
2022/06/01 14:54:47;;;;;;;4.05;1.33;;;;;;;25.15;30.88;99953.00;5092544;28;20405;-75
2022/06/01 14:57:13;;;;;;;3.50;1.42;;;;;;;25.42;29.91;99966.25;5092514;28;20039;-74
2022/06/01 14:59:43;;;;;;;2.47;1.45;;;;;;;25.45;30.47;99962.19;5092557;28;20032;-74
2022/06/01 15:02:12;;;;;;;2.97;1.30;;;;;;;25.41;29.44;99963.81;5092481;28;20115;-75
2022/06/01 15:04:39;;;;;;;2.20;1.35;;;;;;;25.33;29.34;99964.41;5092797;28;20024;-74
2022/06/01 15:07:06;;;;;;;2.53;1.52;;;;;;;25.36;30.05;99955.66;5091004;28;20032;-74
2022/06/01 15:09:35;;;;;;;2.05;1.30;;;;;;;24.92;28.81;99950.84;5092661;28;20123;-74
2022/06/01 15:12:02;;;;;;;3.65;1.60;;;;;;;24.99;29.78;99948.66;5092336;28;20122;-74
2022/06/01 15:14:28;;;;;;;1.60;1.33;;;;;;;24.93;29.73;99957.94;5092654;28;20396;-74
2022/06/01 15:16:57;;;;;;;2.72;1.50;;;;;;;25.04;29.15;99956.84;5092618;28;20115;-74
2022/06/01 15:19:34;;;;;;;2.25;1.10;;;;;;;25.05;28.58;99953.03;5092694;28;20039;-74
2022/06/01 15:22:00;;;;;;;1.95;1.20;;;;;;;24.94;29.08;99940.47;5090948;28;20039;-75
2022/06/01 15:24:25;;;;;;;1.50;1.30;;;;;;;25.02;30.18;99953.53;5092637;28;20032;-74
2022/06/01 15:26:51;;;;;;;3.13;1.40;;;;;;;24.69;30.02;99949.50;5091261;28;20069;-75
2022/06/01 15:40:17;;;;;;;2.47;1.33;;;;;;;24.00;30.93;99941.81;5092492;28;20039;-74
2022/06/01 15:42:47;;;;;;;6.85;2.40;;;;;;;23.96;31.13;99949.69;5091730;28;20043;-75
2022/06/01 15:45:13;;;;;;;2.47;1.50;;;;;;;24.04;31.20;99945.63;5091938;28;20517;-75
2022/06/01 15:47:39;;;;;;;1.70;1.27;;;;;;;24.10;31.33;99944.53;5092014;28;20040;-75
2022/06/01 15:50:08;;;;;;;8.05;2.92;;;;;;;24.15;31.65;99949.19;5091964;28;20457;-75
2022/06/01 15:52:34;;;;;;;9.50;2.45;;;;;;;24.05;30.79;99945.34;5091535;28;20496;-74
2022/06/01 15:55:01;;;;;;;2.67;1.20;;;;;;;23.95;30.71;99948.06;5092031;28;20058;-74
2022/06/01 15:57:27;;;;;;;3.08;1.27;;;;;;;23.94;30.36;99938.28;5091821;28;20035;-74
2022/06/01 15:59:53;;;;;;;3.10;1.60;;;;;;;23.76;31.74;99946.91;5091777;28;20032;-74
2022/06/01 16:02:28;;;;;;;8.35;2.55;;;;;;;23.81;31.42;99944.22;5090234;28;20032;-74
2022/06/01 16:04:54;;;;;;;3.58;1.85;;;;;;;23.89;33.00;99946.41;5090389;28;20042;-76
2022/06/01 16:07:22;;;;;;;2.78;1.52;;;;;;;23.99;32.45;99951.03;5091783;28;20020;-71
2022/06/01 16:09:48;;;;;;;3.00;1.40;;;;;;;23.87;31.37;99948.59;5091689;28;20362;-75
2022/06/01 16:12:14;;;;;;;2.23;1.40;;;;;;;23.95;31.78;99950.78;5091340;28;20047;-74
2022/06/01 16:14:40;;;;;;;3.75;1.50;;;;;;;23.93;30.87;99952.97;5091646;28;20044;-74
2022/06/01 16:17:07;;;;;;;2.95;1.60;;;;;;;23.96;31.85;99951.59;5090205;28;20032;-74
2022/06/01 16:19:33;;;;;;;3.17;2.50;;;;;;;23.91;30.56;99946.94;5091903;28;20069;-76
2022/06/01 16:21:59;;;;;;;2.38;1.60;;;;;;;23.96;34.09;99951.59;5091669;28;20060;-76
2022/06/01 16:24:25;;;;;;;3.72;1.60;;;;;;;24.03;32.26;99952.16;5057127;28;20516;-75
2022/06/01 16:26:50;;;;;;;2.67;1.40;;;;;;;23.92;31.89;99943.13;5091475;28;20040;-75
2022/06/01 16:29:16;;;;;;;2.88;1.30;;;;;;;23.91;32.93;99949.66;5091819;28;20035;-74
2022/06/01 16:31:46;;;;;;;2.78;2.15;;;;;;;23.87;32.63;99948.59;5089911;28;20028;-74
2022/06/01 16:34:13;;;;;;;2.53;1.50;;;;;;;23.80;33.21;99934.44;5116843;22;20054;-76
2022/06/01 16:36:39;;;;;;;2.45;1.30;;;;;;;23.87;32.52;99945.88;5093787;28;20036;-77
2022/06/01 16:39:08;;;;;;;3.97;1.92;;;;;;;23.80;31.71;99942.59;5090149;28;20121;-73
2022/06/01 16:41:37;;;;;;;4.70;1.35;;;;;;;23.63;33.08;99950.94;5091296;28;20036;-72
2022/06/01 16:44:04;;;;;;;2.10;1.40;;;;;;;23.55;32.15;99951.44;5091346;28;20541;-72
2022/06/01 16:46:30;;;;;;;3.63;1.50;;;;;;;23.52;32.48;99954.66;5091455;28;20111;-72
2022/06/01 16:48:56;;;;;;;2.63;1.60;;;;;;;23.48;32.69;99948.16;5091318;28;20198;-72